createdAt,value
2018-08-16T00:00:46.754Z,96.80
2018-08-16T00:01:46.745Z,96.70
2018-08-16T00:02:46.745Z,96.89
2018-08-16T00:03:46.735Z,96.89
2018-08-16T00:04:46.734Z,96.80
2018-08-16T00:05:46.732Z,96.89
2018-08-16T00:06:46.754Z,97.38
2018-08-16T00:07:46.733Z,97.19
2018-08-16T00:08:46.726Z,97.09
2018-08-16T00:09:46.725Z,97.09
2018-08-16T00:10:46.730Z,97.38
2018-08-16T00:11:46.724Z,97.19
2018-08-16T00:12:46.720Z,97.57
2018-08-16T00:13:46.722Z,97.19
2018-08-16T00:14:46.714Z,97.19
2018-08-16T00:15:46.712Z,97.09
2018-08-16T00:16:46.708Z,97.19
2018-08-16T00:17:46.705Z,96.99
2018-08-16T00:18:46.742Z,97.28
2018-08-16T00:19:46.706Z,97.19
2018-08-16T00:20:46.703Z,97.47
2018-08-16T00:21:46.701Z,97.47
2018-08-16T00:22:46.695Z,97.19
2018-08-16T00:23:46.692Z,97.19
2018-08-16T00:24:46.696Z,97.19
2018-08-16T00:25:46.692Z,97.38
2018-08-16T00:26:46.686Z,97.47
2018-08-16T00:27:46.682Z,97.19
2018-08-16T00:28:46.680Z,97.47
2018-08-16T00:29:46.678Z,97.76
2018-08-16T00:30:46.680Z,97.19
2018-08-16T00:31:46.678Z,96.75
2018-08-16T00:32:46.676Z,97.09
2018-08-16T00:33:46.674Z,97.28
2018-08-16T00:34:46.666Z,97.66
2018-08-16T00:35:46.665Z,97.28
2018-08-16T00:36:46.661Z,97.66
2018-08-16T00:37:46.659Z,97.57
2018-08-16T00:38:46.662Z,97.14
2018-08-16T00:39:46.659Z,97.66
2018-08-16T00:40:46.652Z,97.76
2018-08-16T00:41:46.650Z,97.33
2018-08-16T00:42:46.657Z,97.57
2018-08-16T00:43:46.649Z,97.57
2018-08-16T00:44:46.647Z,97.42
2018-08-16T00:45:46.645Z,98.10
2018-08-16T00:46:46.638Z,98.00
2018-08-16T00:47:46.634Z,97.91
2018-08-16T00:48:46.638Z,98.00
2018-08-16T00:49:46.629Z,97.42
2018-08-16T00:50:46.632Z,97.91
2018-08-16T00:51:46.631Z,98.10
2018-08-16T00:52:46.628Z,98.10
2018-08-16T00:53:46.625Z,98.29
2018-08-16T00:54:46.619Z,98.29
2018-08-16T00:55:46.616Z,98.58
2018-08-16T00:56:46.618Z,98.00
2018-08-16T00:57:46.616Z,98.48
2018-08-16T00:58:46.607Z,98.86
2018-08-16T00:59:46.605Z,99.44
2018-08-16T01:00:46.606Z,98.86
2018-08-16T01:01:46.600Z,99.34
2018-08-16T01:02:46.603Z,98.48
2018-08-16T01:03:46.599Z,98.96
2018-08-16T01:04:46.598Z,98.77
2018-08-16T01:05:46.598Z,98.86
2018-08-16T01:06:46.589Z,98.96
2018-08-16T01:07:46.584Z,98.67
2018-08-16T01:08:46.582Z,99.44
2018-08-16T01:09:46.599Z,98.86
2018-08-16T01:10:46.583Z,98.86
2018-08-16T01:11:46.578Z,98.67
2018-08-16T01:12:46.573Z,98.86
2018-08-16T01:13:46.569Z,98.96
2018-08-16T01:14:46.571Z,98.67
2018-08-16T01:15:46.568Z,99.25
2018-08-16T01:16:46.567Z,98.67
2018-08-16T01:17:46.565Z,99.05
2018-08-16T01:18:46.558Z,98.96
2018-08-16T01:19:46.553Z,99.05
2018-08-16T01:20:46.553Z,98.67
2018-08-16T01:21:46.550Z,99.15
2018-08-16T01:22:46.552Z,98.38
2018-08-16T01:23:46.549Z,98.96
2018-08-16T01:24:46.545Z,98.86
2018-08-16T01:25:46.543Z,98.86
2018-08-16T01:26:46.536Z,99.44
2018-08-16T01:27:46.533Z,99.05
2018-08-16T01:28:46.535Z,98.86
2018-08-16T01:29:46.532Z,98.77
2018-08-16T01:30:46.525Z,99.15
2018-08-16T01:31:46.522Z,98.19
2018-08-16T01:32:46.520Z,98.10
2018-08-16T01:33:46.518Z,98.38
2018-08-16T01:34:46.521Z,98.38
2018-08-16T01:35:46.564Z,98.86
2018-08-16T01:36:46.515Z,98.86
2018-08-16T01:37:46.513Z,98.77
2018-08-16T01:38:46.504Z,98.19
2018-08-16T01:39:46.501Z,99.01
2018-08-16T01:40:46.500Z,98.86
2018-08-16T01:41:46.496Z,99.25
2018-08-16T01:42:46.499Z,99.10
2018-08-16T01:43:46.496Z,98.86
2018-08-16T01:44:46.488Z,99.73
2018-08-16T01:45:46.486Z,99.68
2018-08-16T01:46:46.489Z,99.99
2018-08-16T01:47:46.484Z,99.99
2018-08-16T01:48:46.484Z,99.99
2018-08-16T01:49:46.480Z,99.99
2018-08-16T01:50:46.473Z,99.99
2018-08-16T01:51:46.471Z,99.99
2018-08-16T01:52:46.467Z,99.99
2018-08-16T01:53:46.466Z,99.29
2018-08-16T01:54:46.467Z,99.29
2018-08-16T01:55:46.464Z,98.91
2018-08-16T01:56:46.460Z,98.82
2018-08-16T01:57:46.459Z,99.29
2018-08-16T01:58:46.452Z,99.68
2018-08-16T01:59:46.447Z,99.58
2018-08-16T02:00:46.449Z,99.96
2018-08-16T02:01:46.447Z,99.77
2018-08-16T02:02:46.440Z,99.77
2018-08-16T02:03:46.438Z,99.68
2018-08-16T02:04:46.434Z,99.20
2018-08-16T02:05:46.431Z,99.77
2018-08-16T02:06:46.435Z,99.77
2018-08-16T02:07:46.430Z,99.39
2018-08-16T02:08:46.427Z,99.77
2018-08-16T02:09:46.425Z,99.77
2018-08-16T02:10:46.418Z,99.68
2018-08-16T02:11:46.420Z,99.68
2018-08-16T02:12:46.413Z,99.96
2018-08-16T02:13:46.410Z,99.99
2018-08-16T02:14:46.413Z,99.99
2018-08-16T02:15:46.409Z,99.99
2018-08-16T02:16:46.401Z,99.99
2018-08-16T02:17:46.399Z,99.99
2018-08-16T02:18:46.401Z,99.99
2018-08-16T02:19:46.399Z,99.99
2018-08-16T02:20:46.394Z,99.99
2018-08-16T02:21:46.392Z,99.99
2018-08-16T02:22:46.384Z,99.99
2018-08-16T02:23:46.381Z,99.99
2018-08-16T02:24:46.378Z,99.99
2018-08-16T02:25:46.377Z,99.99
2018-08-16T02:26:46.378Z,99.99
2018-08-16T02:27:46.374Z,99.99
2018-08-16T02:28:46.373Z,99.99
2018-08-16T02:29:46.370Z,99.99
2018-08-16T02:30:46.363Z,99.99
2018-08-16T02:31:46.359Z,99.99
2018-08-16T02:32:46.362Z,99.99
2018-08-16T02:33:46.481Z,99.99
2018-08-16T02:34:46.352Z,99.99
2018-08-16T02:35:46.349Z,99.99
2018-08-16T02:36:46.346Z,99.99
2018-08-16T02:37:46.343Z,99.99
2018-08-16T02:38:46.344Z,99.99
2018-08-16T02:39:46.340Z,99.99
2018-08-16T02:40:46.339Z,99.99
2018-08-16T02:41:46.335Z,99.99
2018-08-16T02:42:46.329Z,99.99
2018-08-16T02:43:46.325Z,99.99
2018-08-16T02:44:46.323Z,99.99
2018-08-16T02:45:46.320Z,99.99
2018-08-16T02:46:46.322Z,99.99
2018-08-16T02:47:46.318Z,99.99
2018-08-16T02:48:46.310Z,99.99
2018-08-16T02:49:46.307Z,99.99
2018-08-16T02:50:46.324Z,99.99
2018-08-16T02:51:46.306Z,99.99
2018-08-16T02:52:46.303Z,99.99
2018-08-16T02:53:46.301Z,99.99
2018-08-16T02:54:46.293Z,99.99
2018-08-16T02:55:46.293Z,99.99
2018-08-16T02:56:46.288Z,99.99
2018-08-16T02:57:46.284Z,99.99
2018-08-16T02:58:46.286Z,99.99
2018-08-16T02:59:46.282Z,99.99
2018-08-16T03:00:46.280Z,99.99
2018-08-16T03:01:46.278Z,99.99
2018-08-16T03:02:46.269Z,99.99
2018-08-16T03:03:46.267Z,99.99
2018-08-16T03:04:46.268Z,99.99
2018-08-16T03:05:46.266Z,99.99
2018-08-16T03:06:46.257Z,99.99
2018-08-16T03:07:46.254Z,99.99
2018-08-16T03:08:46.251Z,99.99
2018-08-16T03:09:46.249Z,99.99
2018-08-16T03:10:46.250Z,99.99
2018-08-16T03:11:46.248Z,99.99
2018-08-16T03:12:46.245Z,99.99
2018-08-16T03:13:46.242Z,99.99
2018-08-16T03:14:46.233Z,99.99
2018-08-16T03:15:46.229Z,99.99
2018-08-16T03:16:46.228Z,99.99
2018-08-16T03:17:46.227Z,99.99
2018-08-16T03:18:46.224Z,99.99
2018-08-16T03:19:46.221Z,99.99
2018-08-16T03:20:46.214Z,99.99
2018-08-16T03:21:46.212Z,99.99
2018-08-16T03:22:46.212Z,99.99
2018-08-16T03:23:46.209Z,99.99
2018-08-16T03:24:46.206Z,99.99
2018-08-16T03:25:46.204Z,99.99
2018-08-16T03:26:46.195Z,99.99
2018-08-16T03:27:46.192Z,99.99
2018-08-16T03:28:46.189Z,99.99
2018-08-16T03:29:46.187Z,99.99
2018-08-16T03:30:46.189Z,99.99
2018-08-16T03:31:46.185Z,99.99
2018-08-16T03:32:46.181Z,99.99
2018-08-16T03:33:46.178Z,99.99
2018-08-16T03:34:46.172Z,99.99
2018-08-16T03:35:46.169Z,99.99
2018-08-16T03:36:46.170Z,99.99
2018-08-16T03:37:46.167Z,99.99
2018-08-16T03:38:46.159Z,99.99
2018-08-16T03:39:46.155Z,99.99
2018-08-16T03:40:46.154Z,99.99
2018-08-16T03:41:46.149Z,99.99
2018-08-16T03:42:46.152Z,99.99
2018-08-16T03:43:46.149Z,99.99
2018-08-16T03:44:46.145Z,99.99
2018-08-16T03:45:46.143Z,99.99
2018-08-16T03:46:46.136Z,99.99
2018-08-16T03:47:46.130Z,99.99
2018-08-16T03:48:46.127Z,99.99
2018-08-16T03:49:46.135Z,99.99
2018-08-16T03:50:46.126Z,99.99
2018-08-16T03:51:46.124Z,99.99
2018-08-16T03:52:46.116Z,99.99
2018-08-16T03:53:46.112Z,99.99
2018-08-16T03:54:46.114Z,99.99
2018-08-16T03:55:46.109Z,99.99
2018-08-16T03:56:46.108Z,99.99
2018-08-16T03:57:46.106Z,99.99
2018-08-16T03:58:46.098Z,99.99
2018-08-16T03:59:46.093Z,99.99
2018-08-16T04:00:46.091Z,99.99
2018-08-16T04:01:46.087Z,99.99
2018-08-16T04:02:46.090Z,99.99
2018-08-16T04:03:46.085Z,99.99
2018-08-16T04:04:46.082Z,99.99
2018-08-16T04:05:46.080Z,99.99
2018-08-16T04:06:46.072Z,99.99
2018-08-16T04:07:46.069Z,99.99
2018-08-16T04:08:46.069Z,99.99
2018-08-16T04:09:46.066Z,99.99
2018-08-16T04:10:46.059Z,99.99
2018-08-16T04:11:46.055Z,99.99
2018-08-16T04:12:46.052Z,99.99
2018-08-16T04:13:46.051Z,99.99
2018-08-16T04:14:46.052Z,99.99
2018-08-16T04:15:46.047Z,99.99
2018-08-16T04:16:46.045Z,99.99
2018-08-16T04:17:46.041Z,99.99
2018-08-16T04:18:46.033Z,99.99
2018-08-16T04:19:46.031Z,99.99
2018-08-16T04:20:46.028Z,99.99
2018-08-16T04:21:46.024Z,99.99
2018-08-16T04:22:46.026Z,99.99
2018-08-16T04:23:46.191Z,99.99
2018-08-16T04:24:46.014Z,99.99
2018-08-16T04:25:46.012Z,99.99
2018-08-16T04:26:46.013Z,99.99
2018-08-16T04:27:46.012Z,99.99
2018-08-16T04:28:46.005Z,99.99
2018-08-16T04:29:46.005Z,99.99
2018-08-16T04:30:45.996Z,99.99
2018-08-16T04:31:45.991Z,99.99
2018-08-16T04:32:45.989Z,99.99
2018-08-16T04:33:45.987Z,99.99
2018-08-16T04:34:45.989Z,99.99
2018-08-16T04:35:45.984Z,99.99
2018-08-16T04:36:45.982Z,99.99
2018-08-16T04:37:45.981Z,99.99
2018-08-16T04:38:45.971Z,99.99
2018-08-16T04:39:45.968Z,99.99
2018-08-16T04:40:45.970Z,99.99
2018-08-16T04:41:46.095Z,99.99
2018-08-16T04:42:45.960Z,99.99
2018-08-16T04:43:45.955Z,99.99
2018-08-16T04:44:45.952Z,99.99
2018-08-16T04:45:45.951Z,99.99
2018-08-16T04:46:45.951Z,99.99
2018-08-16T04:47:45.948Z,99.99
2018-08-16T04:48:45.946Z,99.99
2018-08-16T04:49:45.972Z,99.99
2018-08-16T04:50:45.937Z,99.99
2018-08-16T04:51:45.934Z,99.99
2018-08-16T04:52:45.938Z,99.99
2018-08-16T04:53:45.928Z,99.99
2018-08-16T04:54:45.931Z,99.99
2018-08-16T04:55:45.928Z,99.73
2018-08-16T04:56:45.926Z,99.06
2018-08-16T04:57:45.918Z,98.24
2018-08-16T04:58:45.923Z,98.44
2018-08-16T04:59:45.918Z,97.57
2018-08-16T05:00:45.915Z,96.90
2018-08-16T05:01:45.913Z,96.80
2018-08-16T05:02:45.906Z,96.27
2018-08-16T05:03:45.904Z,95.60
2018-08-16T05:04:45.902Z,95.70
2018-08-16T05:05:45.901Z,96.17
2018-08-16T05:06:45.904Z,96.17
2018-08-16T05:07:45.900Z,95.36
2018-08-16T05:08:45.901Z,94.68
2018-08-16T05:09:45.899Z,94.25
2018-08-16T05:10:45.893Z,94.06
2018-08-16T05:11:45.891Z,93.38
2018-08-16T05:12:45.897Z,93.48
2018-08-16T05:13:45.895Z,93.00
2018-08-16T05:14:45.890Z,93.29
2018-08-16T05:15:45.887Z,93.19
2018-08-16T05:16:45.888Z,92.61
2018-08-16T05:17:45.884Z,93.29
2018-08-16T05:18:45.890Z,93.29
2018-08-16T05:19:45.889Z,93.04
2018-08-16T05:20:45.887Z,93.00
2018-08-16T05:21:45.887Z,93.38
2018-08-16T05:22:45.882Z,93.00
2018-08-16T05:23:45.887Z,92.32
2018-08-16T05:24:45.879Z,92.27
2018-08-16T05:25:45.892Z,92.56
2018-08-16T05:26:45.882Z,93.43
2018-08-16T05:27:45.885Z,92.76
2018-08-16T05:28:45.876Z,92.85
2018-08-16T05:29:45.876Z,92.76
2018-08-16T05:30:45.881Z,92.66
2018-08-16T05:31:45.995Z,92.47
2018-08-16T05:32:45.878Z,92.27
2018-08-16T05:33:45.883Z,92.85
2018-08-16T05:34:45.873Z,92.27
2018-08-16T05:35:45.872Z,92.47
2018-08-16T05:36:45.872Z,92.61
2018-08-16T05:37:45.872Z,92.90
2018-08-16T05:38:45.875Z,92.95
2018-08-16T05:39:45.875Z,93.05
2018-08-16T05:40:45.874Z,94.20
2018-08-16T05:41:45.873Z,94.54
2018-08-16T05:42:45.869Z,93.87
2018-08-16T05:43:45.867Z,94.64
2018-08-16T05:44:45.882Z,95.21
2018-08-16T05:45:45.871Z,95.60
2018-08-16T05:46:45.865Z,95.60
2018-08-16T05:47:45.864Z,95.21
2018-08-16T05:48:45.864Z,95.70
2018-08-16T05:49:45.865Z,96.03
2018-08-16T05:50:45.884Z,96.27
2018-08-16T05:51:45.866Z,95.65
2018-08-16T05:52:45.867Z,95.74
2018-08-16T05:53:45.866Z,95.26
2018-08-16T05:54:45.859Z,94.97
2018-08-16T05:55:45.859Z,94.87
2018-08-16T05:56:45.858Z,95.17
2018-08-16T05:57:45.857Z,94.97
2018-08-16T05:58:45.865Z,94.68
2018-08-16T05:59:45.860Z,94.54
2018-08-16T06:00:45.855Z,95.02
2018-08-16T06:01:45.853Z,95.40
2018-08-16T06:02:45.858Z,96.08
2018-08-16T06:03:45.859Z,96.08
2018-08-16T06:04:45.856Z,95.98
2018-08-16T06:05:45.856Z,95.50
2018-08-16T06:06:45.851Z,95.31
2018-08-16T06:07:45.849Z,95.40
2018-08-16T06:08:45.849Z,95.55
2018-08-16T06:09:45.847Z,95.21
2018-08-16T06:10:45.851Z,95.07
2018-08-16T06:11:45.849Z,95.36
2018-08-16T06:12:45.848Z,95.36
2018-08-16T06:13:45.848Z,94.97
2018-08-16T06:14:45.845Z,94.68
2018-08-16T06:15:45.842Z,94.59
2018-08-16T06:16:45.846Z,94.10
2018-08-16T06:17:45.845Z,94.20
2018-08-16T06:18:45.841Z,94.10
2018-08-16T06:19:45.838Z,94.40
2018-08-16T06:20:45.839Z,94.49
2018-08-16T06:21:45.839Z,94.34
2018-08-16T06:22:45.843Z,94.68
2018-08-16T06:23:45.841Z,93.53
2018-08-16T06:24:45.840Z,93.91
2018-08-16T06:25:45.839Z,93.53
2018-08-16T06:26:45.835Z,94.40
2018-08-16T06:27:45.833Z,94.49
2018-08-16T06:28:45.833Z,94.68
2018-08-16T06:29:45.832Z,94.10
2018-08-16T06:30:45.837Z,94.49
2018-08-16T06:31:45.952Z,93.87
2018-08-16T06:32:45.831Z,93.96
2018-08-16T06:33:45.832Z,93.29
2018-08-16T06:34:45.835Z,93.38
2018-08-16T06:35:45.834Z,92.71
2018-08-16T06:36:45.834Z,93.19
2018-08-16T06:37:45.833Z,93.00
2018-08-16T06:38:45.836Z,93.00
2018-08-16T06:39:45.827Z,92.90
2018-08-16T06:40:45.827Z,93.38
2018-08-16T06:41:45.827Z,93.00
2018-08-16T06:42:45.836Z,93.00
2018-08-16T06:43:45.830Z,93.09
2018-08-16T06:44:45.831Z,92.85
2018-08-16T06:45:45.830Z,92.27
2018-08-16T06:46:45.825Z,92.51
2018-08-16T06:47:45.826Z,92.71
2018-08-16T06:48:45.831Z,91.93
2018-08-16T06:49:45.831Z,91.64
2018-08-16T06:50:45.827Z,90.97
2018-08-16T06:51:45.824Z,90.53
2018-08-16T06:52:45.825Z,90.92
2018-08-16T06:53:45.825Z,90.15
2018-08-16T06:54:45.832Z,89.42
2018-08-16T06:55:45.830Z,89.23
2018-08-16T06:56:45.831Z,89.32
2018-08-16T06:57:45.831Z,88.75
2018-08-16T06:58:45.827Z,88.79
2018-08-16T06:59:45.827Z,88.40
2018-08-16T07:00:45.828Z,88.11
2018-08-16T07:01:45.828Z,87.82
2018-08-16T07:02:45.835Z,87.05
2018-08-16T07:03:45.833Z,87.09
2018-08-16T07:04:45.886Z,87.09
2018-08-16T07:05:45.832Z,86.47
2018-08-16T07:06:45.838Z,86.66
2018-08-16T07:07:45.837Z,86.57
2018-08-16T07:08:45.838Z,87.15
2018-08-16T07:09:45.839Z,87.24
2018-08-16T07:10:45.837Z,86.76
2018-08-16T07:11:45.841Z,86.76
2018-08-16T07:12:45.839Z,87.05
2018-08-16T07:13:45.841Z,86.96
2018-08-16T07:14:45.846Z,86.38
2018-08-16T07:15:45.847Z,86.57
2018-08-16T07:16:45.850Z,87.05
2018-08-16T07:17:45.854Z,86.38
2018-08-16T07:18:45.887Z,86.96
2018-08-16T07:19:45.852Z,87.01
2018-08-16T07:20:45.855Z,86.96
2018-08-16T07:21:45.861Z,86.96
2018-08-16T07:22:45.852Z,87.05
2018-08-16T07:23:45.854Z,86.86
2018-08-16T07:24:45.869Z,86.57
2018-08-16T07:25:45.857Z,86.32
2018-08-16T07:26:45.864Z,85.84
2018-08-16T07:27:45.865Z,84.91
2018-08-16T07:28:45.868Z,85.01
2018-08-16T07:29:45.869Z,84.24
2018-08-16T07:30:45.867Z,84.77
2018-08-16T07:31:45.867Z,84.57
2018-08-16T07:32:45.869Z,82.97
2018-08-16T07:33:45.871Z,83.55
2018-08-16T07:34:45.877Z,82.87
2018-08-16T07:35:45.879Z,82.20
2018-08-16T07:36:45.878Z,82.20
2018-08-16T07:37:45.881Z,81.90
2018-08-16T07:38:45.886Z,82.20
2018-08-16T07:39:45.887Z,81.71
2018-08-16T07:40:45.891Z,81.81
2018-08-16T07:41:45.893Z,81.32
2018-08-16T07:42:45.892Z,80.40
2018-08-16T07:43:45.892Z,80.98
2018-08-16T07:44:45.894Z,80.40
2018-08-16T07:45:46.096Z,80.34
2018-08-16T07:46:45.906Z,80.05
2018-08-16T07:47:45.907Z,79.85
2018-08-16T07:48:45.909Z,77.92
2018-08-16T07:49:45.912Z,79.84
2018-08-16T07:50:45.913Z,77.90
2018-08-16T07:51:46.101Z,75.51
2018-08-16T07:52:45.922Z,76.29
2018-08-16T07:53:45.923Z,75.71
2018-08-16T07:54:45.923Z,75.36
2018-08-16T07:55:45.924Z,74.62
2018-08-16T07:56:45.928Z,72.77
2018-08-16T07:57:45.932Z,72.29
2018-08-16T07:58:45.940Z,71.80
2018-08-16T07:59:45.942Z,72.33
2018-08-16T08:00:45.949Z,72.13
2018-08-16T08:01:45.948Z,70.67
2018-08-16T08:02:45.949Z,69.28
2018-08-16T08:03:45.951Z,69.02
2018-08-16T08:04:45.953Z,70.06
2018-08-16T08:05:45.958Z,70.87
2018-08-16T08:06:45.966Z,70.00
2018-08-16T08:07:45.968Z,70.19
2018-08-16T08:08:45.977Z,70.51
2018-08-16T08:09:45.996Z,69.29
2018-08-16T08:10:45.984Z,68.60
2018-08-16T08:11:45.984Z,67.24
2018-08-16T08:12:45.989Z,67.54
2018-08-16T08:13:45.993Z,66.89
2018-08-16T08:14:45.993Z,66.79
2018-08-16T08:15:45.997Z,67.60
2018-08-16T08:16:46.000Z,68.99
2018-08-16T08:17:46.006Z,69.09
2018-08-16T08:18:46.015Z,69.96
2018-08-16T08:19:46.019Z,69.12
2018-08-16T08:20:46.023Z,68.08
2018-08-16T08:21:46.026Z,67.70
2018-08-16T08:22:46.026Z,67.80
2018-08-16T08:23:46.031Z,67.54
2018-08-16T08:24:46.038Z,66.60
2018-08-16T08:25:46.046Z,66.93
2018-08-16T08:26:46.045Z,66.24
2018-08-16T08:27:46.051Z,65.88
2018-08-16T08:28:46.054Z,65.04
2018-08-16T08:29:46.059Z,62.35
2018-08-16T08:30:46.070Z,62.08
2018-08-16T08:31:46.184Z,61.17
2018-08-16T08:32:46.081Z,58.95
2018-08-16T08:33:46.124Z,58.86
2018-08-16T08:34:46.088Z,58.27
2018-08-16T08:35:46.093Z,57.03
2018-08-16T08:36:46.098Z,56.45
2018-08-16T08:37:46.107Z,56.20
2018-08-16T08:38:46.120Z,55.60
2018-08-16T08:39:46.123Z,54.25
2018-08-16T08:40:46.125Z,53.86
2018-08-16T08:41:46.133Z,55.18
2018-08-16T08:42:46.145Z,56.38
2018-08-16T08:43:46.152Z,57.56
2018-08-16T08:44:46.161Z,57.65
2018-08-16T08:45:46.170Z,58.66
2018-08-16T08:46:46.173Z,56.76
2018-08-16T08:47:46.181Z,54.23
2018-08-16T08:48:46.189Z,52.98
2018-08-16T08:49:46.197Z,51.95
2018-08-16T08:50:46.210Z,52.71
2018-08-16T08:51:46.220Z,52.83
2018-08-16T08:52:46.227Z,52.83
2018-08-16T08:53:46.238Z,52.27
2018-08-16T08:54:46.244Z,51.81
2018-08-16T08:55:46.251Z,51.39
2018-08-16T08:56:46.264Z,48.99
2018-08-16T08:57:46.276Z,47.91
2018-08-16T08:58:46.282Z,48.25
2018-08-16T08:59:46.291Z,48.65
2018-08-16T09:00:46.303Z,48.85
2018-08-16T09:01:46.314Z,48.21
2018-08-16T09:02:46.330Z,50.66
2018-08-16T09:03:46.340Z,50.73
2018-08-16T09:04:46.352Z,49.77
2018-08-16T09:05:46.364Z,48.96
2018-08-16T09:06:46.374Z,48.28
2018-08-16T09:07:46.381Z,47.59
2018-08-16T09:08:46.393Z,48.43
2018-08-16T09:09:46.407Z,48.82
2018-08-16T09:10:46.423Z,49.65
2018-08-16T09:11:46.434Z,49.65
2018-08-16T09:12:46.441Z,49.75
2018-08-16T09:13:46.455Z,48.92
2018-08-16T09:14:46.492Z,49.09
2018-08-16T09:15:46.482Z,49.29
2018-08-16T09:16:46.495Z,48.77
2018-08-16T09:17:46.509Z,48.35
2018-08-16T09:18:46.517Z,47.22
2018-08-16T09:19:46.529Z,46.83
2018-08-16T09:20:46.542Z,45.83
2018-08-16T09:21:46.554Z,45.65
2018-08-16T09:22:46.573Z,44.17
2018-08-16T09:23:46.585Z,44.03
2018-08-16T09:24:46.597Z,42.38
2018-08-16T09:25:46.611Z,41.63
2018-08-16T09:26:46.621Z,41.41
2018-08-16T09:27:46.636Z,41.30
2018-08-16T09:28:46.653Z,41.04
2018-08-16T09:29:46.668Z,40.45
2018-08-16T09:30:46.678Z,40.35
2018-08-16T09:31:46.692Z,40.61
2018-08-16T09:32:46.707Z,41.90
2018-08-16T09:33:46.722Z,43.32
2018-08-16T09:34:46.743Z,43.39
2018-08-16T09:35:46.757Z,44.35
2018-08-16T09:36:46.771Z,44.15
2018-08-16T09:37:46.787Z,43.57
2018-08-16T09:38:46.799Z,42.73
2018-08-16T09:39:46.869Z,42.30
2018-08-16T09:40:46.830Z,42.57
2018-08-16T09:41:46.845Z,42.85
2018-08-16T09:42:46.866Z,42.77
2018-08-16T09:43:46.880Z,43.36
2018-08-16T09:44:46.892Z,43.73
2018-08-16T09:45:46.967Z,43.32
2018-08-16T09:46:46.928Z,43.14
2018-08-16T09:47:46.944Z,43.00
2018-08-16T09:48:46.958Z,43.16
2018-08-16T09:49:46.974Z,43.51
2018-08-16T09:50:46.986Z,44.49
2018-08-16T09:51:47.146Z,43.46
2018-08-16T09:52:47.017Z,43.20
2018-08-16T09:53:47.033Z,42.57
2018-08-16T09:54:47.054Z,43.14
2018-08-16T09:55:47.069Z,44.05
2018-08-16T09:56:47.086Z,44.24
2018-08-16T09:57:47.103Z,43.40
2018-08-16T09:58:47.116Z,42.65
2018-08-16T09:59:47.161Z,42.47
2018-08-16T10:00:47.150Z,41.75
2018-08-16T10:01:47.166Z,40.39
2018-08-16T10:02:47.178Z,41.96
2018-08-16T10:03:47.194Z,42.65
2018-08-16T10:04:47.209Z,43.43
2018-08-16T10:05:47.227Z,43.63
2018-08-16T10:06:47.247Z,42.49
2018-08-16T10:07:47.266Z,43.70
2018-08-16T10:08:47.279Z,45.68
2018-08-16T10:09:47.295Z,45.67
2018-08-16T10:10:47.306Z,45.65
2018-08-16T10:11:47.321Z,45.14
2018-08-16T10:12:47.336Z,46.08
2018-08-16T10:13:47.357Z,47.18
2018-08-16T10:14:47.373Z,47.23
2018-08-16T10:15:47.387Z,46.81
2018-08-16T10:16:47.398Z,43.93
2018-08-16T10:17:47.414Z,44.06
2018-08-16T10:18:47.434Z,45.55
2018-08-16T10:19:47.448Z,44.24
2018-08-16T10:20:47.495Z,43.96
2018-08-16T10:21:47.478Z,43.79
2018-08-16T10:22:47.494Z,43.46
2018-08-16T10:23:47.505Z,43.32
2018-08-16T10:24:47.520Z,42.45
2018-08-16T10:25:47.536Z,43.27
2018-08-16T10:26:47.592Z,42.92
2018-08-16T10:27:47.571Z,43.43
2018-08-16T10:28:47.589Z,44.08
2018-08-16T10:29:47.604Z,44.06
2018-08-16T10:30:47.615Z,44.32
2018-08-16T10:31:47.630Z,43.32
2018-08-16T10:32:47.651Z,41.93
2018-08-16T10:33:47.667Z,41.80
2018-08-16T10:34:47.677Z,42.98
2018-08-16T10:35:47.693Z,43.41
2018-08-16T10:36:47.713Z,42.94
2018-08-16T10:37:47.726Z,43.02
2018-08-16T10:38:47.747Z,42.61
2018-08-16T10:39:47.763Z,42.82
2018-08-16T10:40:47.780Z,42.49
2018-08-16T10:41:47.794Z,42.33
2018-08-16T10:42:47.808Z,42.41
2018-08-16T10:43:47.822Z,42.80
2018-08-16T10:44:47.838Z,43.06
2018-08-16T10:45:47.854Z,42.89
2018-08-16T10:46:47.876Z,42.43
2018-08-16T10:47:47.889Z,43.49
2018-08-16T10:48:47.902Z,43.47
2018-08-16T10:49:47.919Z,44.57
2018-08-16T10:50:47.938Z,44.12
2018-08-16T10:51:47.955Z,43.68
2018-08-16T10:52:47.972Z,42.40
2018-08-16T10:53:47.992Z,42.30
2018-08-16T10:54:47.998Z,41.85
2018-08-16T10:55:48.014Z,40.35
2018-08-16T10:56:48.032Z,39.26
2018-08-16T10:57:48.047Z,38.91
2018-08-16T10:58:48.067Z,39.76
2018-08-16T10:59:48.083Z,40.43
2018-08-16T11:00:48.098Z,41.64
2018-08-16T11:01:48.115Z,42.16
2018-08-16T11:02:48.127Z,41.82
2018-08-16T11:03:48.141Z,42.82
2018-08-16T11:04:48.161Z,44.37
2018-08-16T11:05:48.182Z,44.52
2018-08-16T11:06:48.188Z,45.64
2018-08-16T11:07:48.205Z,45.86
2018-08-16T11:08:48.220Z,45.07
2018-08-16T11:09:48.236Z,45.37
2018-08-16T11:10:48.255Z,45.17
2018-08-16T11:11:48.270Z,44.58
2018-08-16T11:12:48.286Z,44.33
2018-08-16T11:13:48.300Z,44.29
2018-08-16T11:14:48.311Z,45.27
2018-08-16T11:15:48.325Z,45.41
2018-08-16T11:16:48.340Z,44.31
2018-08-16T11:17:48.353Z,44.27
2018-08-16T11:18:48.408Z,46.23
2018-08-16T11:19:48.388Z,46.62
2018-08-16T11:20:48.398Z,46.52
2018-08-16T11:21:48.412Z,47.57
2018-08-16T11:22:48.431Z,46.54
2018-08-16T11:23:48.444Z,46.81
2018-08-16T11:24:48.460Z,47.06
2018-08-16T11:25:48.476Z,48.77
2018-08-16T11:26:48.485Z,50.22
2018-08-16T11:27:48.497Z,50.42
2018-08-16T11:28:48.511Z,50.20
2018-08-16T11:29:48.525Z,50.56
2018-08-16T11:30:48.543Z,50.71
2018-08-16T11:31:48.555Z,51.03
2018-08-16T11:32:48.566Z,51.10
2018-08-16T11:33:48.580Z,50.73
2018-08-16T11:34:48.589Z,50.71
2018-08-16T11:35:48.599Z,51.20
2018-08-16T11:36:48.615Z,50.90
2018-08-16T11:37:48.670Z,50.59
2018-08-16T11:38:48.633Z,50.95
2018-08-16T11:39:48.644Z,51.37
2018-08-16T11:40:48.739Z,51.73
2018-08-16T11:41:48.666Z,51.92
2018-08-16T11:42:48.681Z,51.66
2018-08-16T11:43:48.691Z,53.00
2018-08-16T11:44:48.701Z,52.41
2018-08-16T11:45:48.709Z,52.64
2018-08-16T11:46:48.718Z,52.17
2018-08-16T11:47:48.723Z,51.88
2018-08-16T11:48:48.733Z,51.49
2018-08-16T11:49:48.742Z,51.95
2018-08-16T11:50:48.757Z,52.25
2018-08-16T11:51:48.764Z,52.41
2018-08-16T11:52:48.768Z,52.93
2018-08-16T11:53:48.776Z,52.34
2018-08-16T11:54:48.789Z,52.83
2018-08-16T11:55:48.798Z,51.95
2018-08-16T11:56:48.805Z,52.90
2018-08-16T11:57:48.812Z,52.83
2018-08-16T11:58:48.865Z,52.70
2018-08-16T11:59:48.823Z,52.51
2018-08-16T12:00:48.830Z,53.56
2018-08-16T12:01:48.838Z,53.19
2018-08-16T12:02:48.853Z,53.58
2018-08-16T12:03:48.856Z,53.68
2018-08-16T12:04:48.865Z,53.39
2018-08-16T12:05:48.873Z,52.90
2018-08-16T12:06:48.876Z,53.66
2018-08-16T12:07:48.882Z,54.14
2018-08-16T12:08:48.894Z,53.66
2018-08-16T12:09:48.904Z,53.75
2018-08-16T12:10:48.903Z,54.07
2018-08-16T12:11:48.910Z,53.88
2018-08-16T12:12:48.916Z,53.78
2018-08-16T12:13:48.923Z,53.56
2018-08-16T12:14:49.010Z,53.68
2018-08-16T12:15:48.940Z,52.80
2018-08-16T12:16:48.948Z,52.29
2018-08-16T12:17:48.956Z,51.92
2018-08-16T12:18:48.955Z,53.27
2018-08-16T12:19:48.961Z,54.02
2018-08-16T12:20:48.968Z,53.11
2018-08-16T12:21:48.975Z,53.70
2018-08-16T12:22:48.987Z,55.23
2018-08-16T12:23:48.993Z,56.21
2018-08-16T12:24:48.994Z,56.04
2018-08-16T12:25:49.000Z,56.04
2018-08-16T12:26:49.011Z,55.36
2018-08-16T12:27:49.015Z,54.85
2018-08-16T12:28:49.032Z,55.13
2018-08-16T12:29:49.028Z,56.11
2018-08-16T12:30:49.031Z,55.89
2018-08-16T12:31:49.035Z,57.09
2018-08-16T12:32:49.041Z,56.40
2018-08-16T12:33:49.048Z,56.70
2018-08-16T12:34:49.077Z,56.62
2018-08-16T12:35:49.064Z,56.72
2018-08-16T12:36:49.069Z,56.04
2018-08-16T12:37:49.177Z,56.11
2018-08-16T12:38:49.122Z,56.89
2018-08-16T12:39:49.081Z,57.01
2018-08-16T12:40:50.198Z,56.60
2018-08-16T12:41:49.099Z,55.91
2018-08-16T12:42:49.100Z,54.65
2018-08-16T12:43:49.104Z,54.94
2018-08-16T12:44:49.109Z,54.75
2018-08-16T12:45:49.118Z,54.16
2018-08-16T12:46:49.126Z,54.85
2018-08-16T12:47:49.289Z,54.16
2018-08-16T12:48:49.138Z,53.99
2018-08-16T12:49:49.138Z,53.50
2018-08-16T12:50:49.148Z,54.19
2018-08-16T12:51:49.151Z,52.92
2018-08-16T12:52:49.157Z,54.09